This is the latest recevied weather packets stored in our database for station/object KJ5FA-10. If no packets are shown the sender has not sent any weather packets the latest 10 day(s).
| Time | Temp. | Humidity | Pressure | Rain* | Wind** | Luminosity | Snow |
|---|---|---|---|---|---|---|---|
| 1788576871 | 28.33° C | 68% | 1014.3 hPa | 0 mm | - | - | - |
| 1788574171 | 30° C | 59% | 1013.9 hPa | 0 mm | - | - | - |
| 1788573271 | 30.56° C | 56% | 1013.9 hPa | 0 mm | - | - | - |
| 1788572371 | 30.56° C | 55% | 1013.9 hPa | 0 mm | - | - | - |
| 1788571471 | 31.11° C | 54% | 1013.6 hPa | 0 mm | - | - | - |
| 1788570571 | 31.67° C | 52% | 1013.5 hPa | 0 mm | - | - | - |
| 1788569671 | 32.22° C | 50% | 1013.4 hPa | 0 mm | - | - | - |
| 1788567872 | 33.33° C | 45% | 1013.1 hPa | 0 mm | - | - | - |
| 1788566971 | 33.89° C | 45% | 1013.1 hPa | 0 mm | - | - | - |
| 1788564271 | 35° C | 44% | 1012.8 hPa | 0 mm | - | - | - |
| 1788563371 | 35.56° C | 43% | 1012.7 hPa | 0 mm | - | - | - |
| 1788562471 | 36.11° C | 43% | 1012.6 hPa | 0 mm | - | - | - |
| 1788561571 | 36.11° C | 42% | 1012.5 hPa | 0 mm | - | - | - |
| 1788560670 | 36.67° C | 41% | 1012.6 hPa | 0 mm | - | - | - |
| 1788559771 | 37.22° C | 40% | 1012.5 hPa | 0 mm | - | - | - |
| 1788558872 | 37.22° C | 40% | 1012.8 hPa | 0 mm | - | - | - |
| 1788557971 | 37.78° C | 40% | 1013 hPa | 0 mm | - | - | - |
| 1788555272 | 35.56° C | 44% | 1013.6 hPa | 0 mm | - | - | - |
| 1788550771 | 36.67° C | 44% | 1014.3 hPa | 0 mm | - | - | - |
| 1788548072 | 36.11° C | 44% | 1014.9 hPa | 0 mm | - | - | - |
| 1788547171 | 36.11° C | 44% | 1015.1 hPa | 0 mm | - | - | - |
| 1788546271 | 36.11° C | 44% | 1015.4 hPa | 0 mm | - | - | - |
| 1788545371 | 35° C | 47% | 1015.5 hPa | 0 mm | - | - | - |
| 1788543571 | 35.56° C | 45% | 1015.8 hPa | 0 mm | - | - | - |
| 1788542671 | 35.56° C | 45% | 1016.4 hPa | 0 mm | - | - | - |
* Rain latest hour (hover to see other rain measurements)
** Current wind speed in m/s (hover to see current wind gust speed)